createdAt,value
2022-10-25T00:00:55.477Z,22.90
2022-10-25T00:03:22.214Z,24.90
2022-10-25T00:05:48.933Z,20.80
2022-10-25T00:08:15.614Z,23.60
2022-10-25T00:10:42.388Z,25.20
2022-10-25T00:13:09.118Z,27.30
2022-10-25T00:15:35.829Z,26.80
2022-10-25T00:18:02.617Z,22.90
2022-10-25T00:20:29.470Z,29.50
2022-10-25T00:22:56.253Z,29.50
2022-10-25T00:25:23.006Z,27.60
2022-10-25T00:27:49.663Z,24.10
2022-10-25T00:30:16.431Z,24.50
2022-10-25T00:32:43.405Z,19.00
2022-10-25T00:35:10.407Z,19.90
2022-10-25T00:37:37.738Z,21.70
2022-10-25T00:40:05.719Z,28.80
2022-10-25T00:42:32.431Z,24.50
2022-10-25T00:45:02.153Z,22.40
2022-10-25T00:47:31.868Z,29.30
2022-10-25T00:50:15.384Z,23.20
2022-10-25T00:52:45.958Z,26.10
2022-10-25T00:55:15.716Z,21.50
2022-10-25T00:58:09.034Z,20.60
2022-10-25T01:00:36.924Z,23.70
2022-10-25T01:03:04.784Z,22.10
2022-10-25T01:05:31.582Z,20.20
2022-10-25T01:07:58.605Z,25.70
2022-10-25T01:10:26.546Z,26.30
2022-10-25T01:12:54.160Z,20.20
2022-10-25T01:15:29.599Z,19.80
2022-10-25T01:18:24.047Z,16.90
2022-10-25T01:21:09.184Z,23.40
2022-10-25T01:23:41.679Z,21.10
2022-10-25T01:26:30.117Z,19.30
2022-10-25T01:29:27.280Z,19.00
2022-10-25T01:32:15.776Z,20.80
2022-10-25T01:34:50.521Z,17.80
2022-10-25T01:37:39.959Z,20.90
2022-10-25T01:40:09.958Z,21.00
2022-10-25T01:42:51.941Z,25.40
2022-10-25T01:45:34.887Z,29.00
2022-10-25T01:48:26.670Z,17.90
2022-10-25T01:50:53.475Z,21.60
2022-10-25T01:53:20.200Z,22.40
2022-10-25T01:56:00.846Z,16.50
2022-10-25T01:58:42.844Z,20.30
2022-10-25T02:01:40.494Z,21.60
2022-10-25T02:04:25.894Z,23.20
2022-10-25T02:06:57.484Z,20.50
2022-10-25T02:09:54.917Z,27.40
2022-10-25T02:12:27.614Z,21.20
2022-10-25T02:15:37.431Z,20.10
2022-10-25T02:18:09.638Z,21.60
2022-10-25T02:20:36.507Z,21.70
2022-10-25T02:23:06.222Z,24.20
2022-10-25T02:25:35.509Z,29.60
2022-10-25T02:28:07.565Z,20.00
2022-10-25T02:30:35.855Z,21.30
2022-10-25T02:33:02.671Z,20.80
2022-10-25T02:35:29.481Z,23.70
2022-10-25T02:37:56.305Z,14.60
2022-10-25T02:40:23.799Z,16.60
2022-10-25T02:42:50.507Z,18.00
2022-10-25T02:45:17.401Z,22.70
2022-10-25T02:47:44.354Z,19.00
2022-10-25T02:50:11.491Z,15.00
2022-10-25T02:52:38.222Z,23.70
2022-10-25T02:55:05.419Z,17.90
2022-10-25T02:57:33.917Z,18.60
2022-10-25T03:00:00.818Z,13.20
2022-10-25T03:02:27.639Z,19.90
2022-10-25T03:04:54.403Z,18.50
2022-10-25T03:07:21.186Z,18.10
2022-10-25T03:09:47.878Z,17.20
2022-10-25T03:12:14.559Z,15.30
2022-10-25T03:14:41.282Z,17.50
2022-10-25T03:17:08.473Z,13.70
2022-10-25T03:19:35.176Z,15.10
2022-10-25T03:22:01.962Z,19.40
2022-10-25T03:24:28.676Z,20.00
2022-10-25T03:26:55.334Z,27.20
2022-10-25T03:29:22.106Z,19.90
2022-10-25T03:31:48.789Z,14.50
2022-10-25T03:34:15.503Z,21.60
2022-10-25T03:36:42.299Z,24.00
2022-10-25T03:39:09.954Z,16.90
2022-10-25T03:41:36.613Z,20.60
2022-10-25T03:44:03.613Z,24.00
2022-10-25T03:46:30.473Z,23.40
2022-10-25T03:48:57.157Z,19.30
2022-10-25T03:51:23.898Z,21.30
2022-10-25T03:53:50.865Z,20.10
2022-10-25T03:56:17.528Z,20.80
2022-10-25T03:58:44.278Z,23.30
2022-10-25T04:01:11.381Z,25.10
2022-10-25T04:03:38.264Z,27.50
2022-10-25T04:06:05.206Z,25.30
2022-10-25T04:08:31.903Z,20.30
2022-10-25T04:10:58.660Z,29.70
2022-10-25T04:13:25.488Z,23.10
2022-10-25T04:15:52.183Z,24.90
2022-10-25T04:18:18.945Z,26.50
2022-10-25T04:20:45.748Z,23.60
2022-10-25T04:23:12.492Z,20.70
2022-10-25T04:25:39.310Z,21.60
2022-10-25T04:28:06.138Z,16.20
2022-10-25T04:30:36.502Z,23.80
2022-10-25T04:33:05.747Z,26.60
2022-10-25T04:35:32.516Z,21.30
2022-10-25T04:37:59.387Z,19.20
2022-10-25T04:40:26.106Z,21.70
2022-10-25T04:42:52.870Z,19.40
2022-10-25T04:45:19.663Z,23.50
2022-10-25T04:47:46.390Z,19.30
2022-10-25T04:50:13.421Z,20.50
2022-10-25T04:52:40.206Z,22.00
2022-10-25T04:55:07.201Z,23.20
2022-10-25T04:57:33.997Z,24.80
2022-10-25T05:00:00.699Z,22.10
2022-10-25T05:02:27.496Z,17.80
2022-10-25T05:04:54.231Z,22.20
2022-10-25T05:07:21.859Z,22.10
2022-10-25T05:09:48.583Z,24.00
2022-10-25T05:12:15.930Z,26.20
2022-10-25T05:14:42.780Z,33.70
2022-10-25T05:17:09.569Z,20.50
2022-10-25T05:19:36.361Z,23.70
2022-10-25T05:22:03.171Z,27.30
2022-10-25T05:24:29.918Z,27.80
2022-10-25T05:26:56.727Z,24.00
2022-10-25T05:29:23.546Z,22.20
2022-10-25T05:31:50.264Z,24.10
2022-10-25T05:34:17.023Z,26.80
2022-10-25T05:36:43.744Z,25.80
2022-10-25T05:39:10.425Z,25.00
2022-10-25T05:41:37.472Z,29.50
2022-10-25T05:44:05.840Z,31.80
2022-10-25T05:46:32.896Z,27.90
2022-10-25T05:49:00.049Z,33.90
2022-10-25T05:51:36.172Z,27.70
2022-10-25T05:54:10.658Z,29.00
2022-10-25T05:56:38.362Z,32.50
2022-10-25T05:59:09.286Z,29.50
2022-10-25T06:01:38.030Z,30.90
2022-10-25T06:04:05.575Z,29.80
2022-10-25T06:06:32.467Z,33.00
2022-10-25T06:09:01.498Z,32.40
2022-10-25T06:11:29.846Z,36.40
2022-10-25T06:13:56.873Z,27.60
2022-10-25T06:16:24.406Z,27.60
2022-10-25T06:18:52.528Z,30.50
2022-10-25T06:21:25.323Z,27.70
2022-10-25T06:23:52.826Z,38.30
2022-10-25T06:26:22.854Z,31.30
2022-10-25T06:28:53.575Z,40.70
2022-10-25T06:31:21.000Z,30.50
2022-10-25T06:33:47.867Z,31.70
2022-10-25T06:36:18.067Z,36.30
2022-10-25T06:38:46.188Z,41.30
2022-10-25T06:41:15.678Z,28.20
2022-10-25T06:43:42.479Z,39.20
2022-10-25T06:46:13.855Z,32.30
2022-10-25T06:48:40.550Z,34.40
2022-10-25T06:51:10.065Z,33.90
2022-10-25T06:53:37.816Z,38.20
2022-10-25T06:56:09.176Z,33.70
2022-10-25T06:58:39.003Z,54.70
2022-10-25T07:01:08.963Z,33.50
2022-10-25T07:03:35.857Z,39.30
2022-10-25T07:06:06.388Z,43.60
2022-10-25T07:08:37.191Z,38.50
2022-10-25T07:11:05.062Z,42.00
2022-10-25T07:13:34.067Z,42.20
2022-10-25T07:16:06.112Z,41.00
2022-10-25T07:18:34.230Z,43.10
2022-10-25T07:21:06.529Z,48.90
2022-10-25T07:23:33.720Z,48.30
2022-10-25T07:26:00.821Z,53.20
2022-10-25T07:28:27.911Z,44.80
2022-10-25T07:30:54.606Z,52.70
2022-10-25T07:33:21.455Z,52.20
2022-10-25T07:36:05.995Z,46.80
2022-10-25T07:38:37.243Z,53.00
2022-10-25T07:41:04.121Z,61.20
2022-10-25T07:43:31.193Z,54.20
2022-10-25T07:45:57.952Z,38.90
2022-10-25T07:48:24.851Z,41.80
2022-10-25T07:50:51.930Z,43.40
2022-10-25T07:53:19.395Z,39.80
2022-10-25T07:55:55.850Z,47.60
2022-10-25T07:58:22.783Z,47.30
2022-10-25T08:00:49.461Z,41.20
2022-10-25T08:03:18.002Z,43.70
2022-10-25T08:05:46.884Z,47.90
2022-10-25T08:08:14.728Z,47.90
2022-10-25T08:10:43.342Z,42.70
2022-10-25T08:13:10.738Z,39.00
2022-10-25T08:15:37.871Z,41.00
2022-10-25T08:18:05.697Z,43.30
2022-10-25T08:20:56.886Z,44.80
2022-10-25T08:23:19.597Z,42.10
2022-10-25T08:25:47.470Z,45.70
2022-10-25T08:28:14.218Z,41.10
2022-10-25T08:30:41.921Z,33.40
2022-10-25T08:33:11.596Z,29.30
2022-10-25T08:35:39.310Z,35.00
2022-10-25T08:38:06.649Z,37.80
2022-10-25T08:40:57.673Z,41.20
2022-10-25T08:43:36.666Z,42.10
2022-10-25T08:46:14.175Z,36.40
2022-10-25T08:48:46.554Z,43.90
2022-10-25T08:51:35.787Z,42.40
2022-10-25T08:54:18.822Z,37.40
2022-10-25T08:56:57.053Z,42.60
2022-10-25T08:59:38.336Z,38.60
2022-10-25T09:02:19.196Z,37.90
2022-10-25T09:04:46.203Z,38.70
2022-10-25T09:07:19.307Z,36.70
2022-10-25T09:10:00.796Z,44.10
2022-10-25T09:12:50.742Z,33.10
2022-10-25T09:15:30.844Z,37.90
2022-10-25T09:17:57.724Z,29.80
2022-10-25T09:20:33.580Z,38.80
2022-10-25T09:23:13.093Z,35.10
2022-10-25T09:25:49.244Z,33.20
2022-10-25T09:28:25.305Z,34.10
2022-10-25T09:30:57.521Z,32.70
2022-10-25T09:33:30.726Z,32.40
2022-10-25T09:35:59.157Z,41.10
2022-10-25T09:38:52.035Z,33.40
2022-10-25T09:41:31.030Z,34.10
2022-10-25T09:44:16.443Z,36.80
2022-10-25T09:46:54.005Z,31.50
2022-10-25T09:50:02.882Z,33.50
2022-10-25T09:52:51.541Z,31.70
2022-10-25T09:55:30.137Z,18.50
2022-10-25T09:57:57.120Z,19.20
2022-10-25T10:00:23.915Z,23.20
2022-10-25T10:02:50.896Z,17.80
2022-10-25T10:05:20.750Z,21.20
2022-10-25T10:07:50.179Z,22.90
2022-10-25T10:10:21.221Z,28.20
2022-10-25T10:12:51.122Z,20.30
2022-10-25T10:15:28.195Z,24.80
2022-10-25T10:18:20.074Z,26.50
2022-10-25T10:21:04.210Z,30.10
2022-10-25T10:24:00.169Z,25.40
2022-10-25T10:26:37.612Z,29.30
2022-10-25T10:29:16.661Z,32.70
2022-10-25T10:31:48.480Z,22.00
2022-10-25T10:34:31.694Z,31.50
2022-10-25T10:37:21.720Z,27.10
2022-10-25T10:40:23.477Z,29.90
2022-10-25T10:42:50.393Z,23.00
2022-10-25T10:45:20.563Z,20.10
2022-10-25T10:47:50.579Z,19.50
2022-10-25T10:50:23.461Z,21.20
2022-10-25T10:52:59.661Z,16.40
2022-10-25T10:55:45.457Z,17.90
2022-10-25T10:58:23.957Z,22.10
2022-10-25T11:00:50.634Z,31.10
2022-10-25T11:03:45.005Z,19.50
2022-10-25T11:06:29.671Z,28.30
2022-10-25T11:09:18.086Z,29.00
2022-10-25T11:11:46.458Z,29.00
2022-10-25T11:14:18.042Z,31.90
2022-10-25T11:16:58.920Z,28.80
2022-10-25T11:19:28.631Z,27.90
2022-10-25T11:22:32.183Z,38.80
2022-10-25T11:25:08.314Z,32.40
2022-10-25T11:27:50.549Z,30.70
2022-10-25T11:30:20.619Z,41.60
2022-10-25T11:33:01.767Z,39.70
2022-10-25T11:35:45.533Z,34.00
2022-10-25T11:38:20.337Z,38.40
2022-10-25T11:41:01.083Z,34.50
2022-10-25T11:43:46.242Z,31.10
2022-10-25T11:46:15.917Z,29.60
2022-10-25T11:48:48.641Z,33.20
2022-10-25T11:51:27.399Z,42.20
2022-10-25T11:54:25.372Z,34.60
2022-10-25T11:57:07.261Z,27.60
2022-10-25T12:00:01.192Z,30.50
2022-10-25T12:02:45.642Z,36.10
2022-10-25T12:05:34.521Z,25.40
2022-10-25T12:08:17.781Z,28.40
2022-10-25T12:10:51.434Z,25.40
2022-10-25T12:13:27.740Z,21.70
2022-10-25T12:15:56.677Z,24.40
2022-10-25T12:18:32.185Z,20.20
2022-10-25T12:20:59.407Z,28.80
2022-10-25T12:23:28.307Z,25.50
2022-10-25T12:26:10.642Z,23.70
2022-10-25T12:28:43.091Z,23.90
2022-10-25T12:31:18.930Z,20.30
2022-10-25T12:33:58.939Z,31.30
2022-10-25T12:36:36.343Z,26.30
2022-10-25T12:39:17.103Z,21.20
2022-10-25T12:41:48.004Z,24.40
2022-10-25T12:44:38.468Z,30.20
2022-10-25T12:47:34.401Z,22.00
2022-10-25T12:50:23.233Z,25.50
2022-10-25T12:53:28.433Z,19.90
2022-10-25T12:56:04.690Z,26.00
2022-10-25T12:58:55.705Z,21.20
2022-10-25T13:01:50.543Z,21.80
2022-10-25T13:04:38.770Z,21.30
2022-10-25T13:07:08.006Z,26.40
2022-10-25T13:09:37.376Z,24.60
2022-10-25T13:12:20.293Z,22.10
2022-10-25T13:14:51.737Z,24.10
2022-10-25T13:17:18.419Z,20.00
2022-10-25T13:19:54.625Z,17.40
2022-10-25T13:22:37.972Z,22.20
2022-10-25T13:25:08.863Z,18.10
2022-10-25T13:27:37.105Z,25.60
2022-10-25T13:30:06.868Z,31.10
2022-10-25T13:32:36.155Z,24.60
2022-10-25T13:35:23.536Z,17.40
2022-10-25T13:37:54.359Z,24.10
2022-10-25T13:40:30.211Z,30.30
2022-10-25T13:43:06.283Z,20.70
2022-10-25T13:45:41.002Z,19.60
2022-10-25T13:48:13.920Z,22.90
2022-10-25T13:50:45.342Z,17.50
2022-10-25T13:53:18.126Z,27.20
2022-10-25T13:55:47.898Z,20.00
2022-10-25T13:58:31.502Z,21.80
2022-10-25T14:01:17.714Z,30.70
2022-10-25T14:04:02.755Z,24.20
2022-10-25T14:06:36.697Z,20.70
2022-10-25T14:09:34.773Z,18.10
2022-10-25T14:12:01.437Z,27.80
2022-10-25T14:14:38.164Z,17.90
2022-10-25T14:17:40.375Z,23.30
2022-10-25T14:20:09.981Z,26.20
2022-10-25T14:22:52.292Z,24.80
2022-10-25T14:25:25.885Z,32.80
2022-10-25T14:28:08.131Z,17.80
2022-10-25T14:30:43.104Z,24.00
2022-10-25T14:33:31.385Z,26.80
2022-10-25T14:36:07.292Z,24.90
2022-10-25T14:38:50.184Z,23.60
2022-10-25T14:41:24.929Z,20.70
2022-10-25T14:43:52.875Z,29.00
2022-10-25T14:46:22.158Z,24.50
2022-10-25T14:48:53.577Z,21.70
2022-10-25T14:51:36.067Z,22.60
2022-10-25T14:54:06.779Z,25.50
2022-10-25T14:56:40.907Z,28.00
2022-10-25T14:59:19.944Z,29.60
2022-10-25T15:02:28.758Z,26.90
2022-10-25T15:04:59.051Z,42.60
2022-10-25T15:07:59.311Z,26.90
2022-10-25T15:10:43.129Z,38.80
2022-10-25T15:13:16.019Z,33.70
2022-10-25T15:15:48.246Z,27.50
2022-10-25T15:18:31.442Z,30.00
2022-10-25T15:21:08.069Z,33.30
2022-10-25T15:23:39.059Z,34.10
2022-10-25T15:26:25.329Z,36.90
2022-10-25T15:28:55.316Z,43.50
2022-10-25T15:31:25.105Z,40.40
2022-10-25T15:34:03.465Z,38.30
2022-10-25T15:36:32.479Z,45.90
2022-10-25T15:39:12.930Z,46.70
2022-10-25T15:41:43.542Z,54.10
2022-10-25T15:44:10.167Z,65.60
2022-10-25T15:46:38.233Z,70.00
2022-10-25T15:49:08.649Z,91.40
2022-10-25T15:51:39.241Z,74.90
2022-10-25T15:54:13.663Z,64.10
2022-10-25T15:56:40.429Z,57.90
2022-10-25T15:59:07.139Z,56.60
2022-10-25T16:01:33.993Z,43.50
2022-10-25T16:04:01.304Z,33.30
2022-10-25T16:06:28.045Z,32.70
2022-10-25T16:08:55.458Z,38.60
2022-10-25T16:11:22.523Z,32.80
2022-10-25T16:13:53.305Z,33.20
2022-10-25T16:16:46.120Z,30.30
2022-10-25T16:19:17.861Z,24.20
2022-10-25T16:21:45.479Z,28.20
2022-10-25T16:24:13.168Z,25.90
2022-10-25T16:26:43.594Z,24.00
2022-10-25T16:29:23.867Z,24.30
2022-10-25T16:31:51.901Z,26.20
2022-10-25T16:34:20.056Z,25.90
2022-10-25T16:36:48.270Z,25.40
2022-10-25T16:39:15.585Z,20.30
2022-10-25T16:41:44.223Z,24.30
2022-10-25T16:44:12.698Z,31.70
2022-10-25T16:46:40.267Z,26.20
2022-10-25T16:49:09.282Z,22.50
2022-10-25T16:51:37.136Z,28.80
2022-10-25T16:54:04.681Z,28.70
2022-10-25T16:56:32.081Z,23.40
2022-10-25T16:58:58.888Z,30.50
2022-10-25T17:01:34.588Z,24.30
2022-10-25T17:04:09.200Z,23.60
2022-10-25T17:06:41.235Z,28.90
2022-10-25T17:09:08.659Z,32.20
2022-10-25T17:11:36.671Z,39.40
2022-10-25T17:14:04.227Z,44.40
2022-10-25T17:16:31.429Z,44.10
2022-10-25T17:18:58.601Z,42.70
2022-10-25T17:21:25.409Z,42.40
2022-10-25T17:23:52.667Z,39.20
2022-10-25T17:26:19.465Z,40.20
2022-10-25T17:28:46.806Z,37.10
2022-10-25T17:31:15.048Z,36.10
2022-10-25T17:33:42.656Z,27.40
2022-10-25T17:36:12.359Z,25.30
2022-10-25T17:38:39.986Z,21.90
2022-10-25T17:41:07.427Z,29.10
2022-10-25T17:43:36.249Z,28.30
2022-10-25T17:46:06.082Z,33.40
2022-10-25T17:48:35.012Z,31.00
2022-10-25T17:51:08.245Z,29.70
2022-10-25T17:53:35.475Z,29.60
2022-10-25T17:56:19.496Z,48.80
2022-10-25T17:58:48.269Z,30.40
2022-10-25T18:01:19.105Z,33.80
2022-10-25T18:03:46.837Z,26.50
2022-10-25T18:06:16.234Z,39.90
2022-10-25T18:08:43.790Z,39.10
2022-10-25T18:11:14.331Z,36.70
2022-10-25T18:13:42.081Z,33.50
2022-10-25T18:16:10.850Z,30.30
2022-10-25T18:18:38.995Z,27.90
2022-10-25T18:21:07.934Z,27.10
2022-10-25T18:23:36.039Z,23.50
2022-10-25T18:26:04.276Z,22.00
2022-10-25T18:28:33.262Z,21.50
2022-10-25T18:31:06.896Z,19.80
2022-10-25T18:33:36.500Z,19.90
2022-10-25T18:36:06.702Z,19.90
2022-10-25T18:38:34.547Z,23.50
2022-10-25T18:41:10.837Z,24.60
2022-10-25T18:43:38.083Z,20.50
2022-10-25T18:46:05.766Z,18.20
2022-10-25T18:48:33.153Z,25.80
2022-10-25T18:51:10.007Z,23.40
2022-10-25T18:53:39.617Z,26.40
2022-10-25T18:56:14.917Z,21.10
2022-10-25T18:58:44.550Z,22.50
2022-10-25T19:01:17.638Z,26.90
2022-10-25T19:03:45.488Z,23.10
2022-10-25T19:06:16.093Z,26.60
2022-10-25T19:08:43.591Z,28.20
2022-10-25T19:11:12.934Z,26.70
2022-10-25T19:13:41.249Z,31.90
2022-10-25T19:16:09.839Z,23.60
2022-10-25T19:18:41.143Z,24.00
2022-10-25T19:21:11.458Z,22.80
2022-10-25T19:23:45.264Z,21.60
2022-10-25T19:26:18.686Z,25.60
2022-10-25T19:28:46.143Z,22.90
2022-10-25T19:31:16.200Z,23.10
2022-10-25T19:33:47.943Z,19.10
2022-10-25T19:36:16.178Z,19.80
2022-10-25T19:38:45.579Z,19.50
2022-10-25T19:41:16.458Z,18.70
2022-10-25T19:43:44.044Z,19.90
2022-10-25T19:46:12.962Z,22.60
2022-10-25T19:48:40.746Z,24.30
2022-10-25T19:51:13.464Z,22.90
2022-10-25T19:53:44.080Z,26.10
2022-10-25T19:56:16.236Z,23.90
2022-10-25T19:58:44.131Z,26.70
2022-10-25T20:01:16.167Z,28.30
2022-10-25T20:03:45.396Z,25.80
2022-10-25T20:06:18.744Z,18.20
2022-10-25T20:08:49.554Z,22.60
2022-10-25T20:11:18.983Z,20.60
2022-10-25T20:13:47.398Z,22.20
2022-10-25T20:16:16.457Z,21.40
2022-10-25T20:18:43.841Z,18.80
2022-10-25T20:21:14.117Z,24.00
2022-10-25T20:23:43.347Z,25.30
2022-10-25T20:26:16.426Z,24.70
2022-10-25T20:28:44.244Z,22.20
2022-10-25T20:31:11.771Z,22.30
2022-10-25T20:33:39.898Z,25.70
2022-10-25T20:36:09.782Z,25.50
2022-10-25T20:38:38.234Z,21.80
2022-10-25T20:41:07.352Z,24.70
2022-10-25T20:43:36.313Z,28.70
2022-10-25T20:46:04.061Z,19.50
2022-10-25T20:48:32.015Z,25.60
2022-10-25T20:51:04.168Z,21.30
2022-10-25T20:53:34.618Z,24.40
2022-10-25T20:56:01.328Z,25.40
2022-10-25T20:58:28.088Z,20.80
2022-10-25T21:00:57.688Z,21.40
2022-10-25T21:03:26.467Z,22.40
2022-10-25T21:05:54.402Z,28.00
2022-10-25T21:08:23.039Z,27.40
2022-10-25T21:10:59.073Z,17.70
2022-10-25T21:13:53.124Z,22.50
2022-10-25T21:16:19.975Z,24.50
2022-10-25T21:18:46.619Z,23.50
2022-10-25T21:21:18.554Z,17.30
2022-10-25T21:23:48.408Z,22.10
2022-10-25T21:26:16.089Z,20.40
2022-10-25T21:28:43.134Z,19.10
2022-10-25T21:31:12.393Z,20.30
2022-10-25T21:33:39.707Z,24.70
2022-10-25T21:36:12.574Z,19.20
2022-10-25T21:38:39.861Z,22.30
2022-10-25T21:41:07.661Z,22.30
2022-10-25T21:43:34.577Z,16.40
2022-10-25T21:46:05.002Z,19.60
2022-10-25T21:48:31.958Z,21.50
2022-10-25T21:51:01.648Z,24.20
2022-10-25T21:53:28.354Z,21.20
2022-10-25T21:56:23.443Z,26.00
2022-10-25T21:58:51.184Z,29.40
2022-10-25T22:01:21.052Z,31.40
2022-10-25T22:03:48.113Z,30.40
2022-10-25T22:06:17.290Z,27.90
2022-10-25T22:08:44.893Z,28.90
2022-10-25T22:11:23.885Z,30.40
2022-10-25T22:13:58.874Z,28.10
2022-10-25T22:16:26.359Z,25.40
2022-10-25T22:18:59.089Z,28.60
2022-10-25T22:21:28.500Z,27.30
2022-10-25T22:23:55.203Z,25.70
2022-10-25T22:26:22.701Z,29.00
2022-10-25T22:28:54.286Z,21.00
2022-10-25T22:31:21.861Z,27.00
2022-10-25T22:33:53.784Z,24.50
2022-10-25T22:36:22.622Z,19.30
2022-10-25T22:38:49.395Z,21.90
2022-10-25T22:41:21.926Z,25.80
2022-10-25T22:43:49.684Z,22.50
2022-10-25T22:46:23.487Z,22.50
2022-10-25T22:48:52.180Z,24.50
2022-10-25T22:51:19.835Z,19.30
2022-10-25T22:53:46.581Z,20.50
2022-10-25T22:56:24.995Z,21.40
2022-10-25T22:59:00.154Z,23.30
2022-10-25T23:01:29.933Z,19.80
2022-10-25T23:03:58.228Z,22.50
2022-10-25T23:06:30.693Z,18.60
2022-10-25T23:08:59.809Z,18.40
2022-10-25T23:11:28.960Z,19.70
2022-10-25T23:13:57.824Z,19.90
2022-10-25T23:16:25.008Z,20.70
2022-10-25T23:18:52.436Z,17.70
2022-10-25T23:21:24.601Z,18.90
2022-10-25T23:23:52.939Z,18.00
2022-10-25T23:26:29.067Z,16.80
2022-10-25T23:28:56.670Z,17.20
2022-10-25T23:31:24.821Z,26.80
2022-10-25T23:33:53.624Z,27.90
2022-10-25T23:36:22.728Z,22.80
2022-10-25T23:38:50.900Z,24.30
2022-10-25T23:41:19.591Z,28.60
2022-10-25T23:43:46.326Z,25.60
2022-10-25T23:46:13.407Z,25.10
2022-10-25T23:48:40.204Z,21.90
2022-10-25T23:51:09.458Z,19.90
2022-10-25T23:53:37.072Z,19.50
2022-10-25T23:56:05.866Z,19.50
2022-10-25T23:58:33.099Z,21.80
